createdAt,value
2022-11-19T00:03:19.545Z,100858.88
2022-11-19T00:08:11.261Z,100864.66
2022-11-19T00:13:05.109Z,100874.81
2022-11-19T00:17:59.252Z,100873.81
2022-11-19T00:22:59.935Z,100876.34
2022-11-19T00:27:51.043Z,100873.78
2022-11-19T00:32:43.983Z,100870.34
2022-11-19T00:37:38.958Z,100888.34
2022-11-19T00:42:36.917Z,100880.50
2022-11-19T00:47:28.319Z,100885.53
2022-11-19T00:52:20.112Z,100896.53
2022-11-19T00:57:11.013Z,100897.47
2022-11-19T01:02:05.723Z,100894.00
2022-11-19T01:06:57.050Z,100905.91
2022-11-19T01:11:49.174Z,100923.09
2022-11-19T01:16:46.737Z,100921.41
2022-11-19T01:21:43.445Z,100919.69
2022-11-19T01:26:40.565Z,100917.84
2022-11-19T01:31:39.150Z,100933.28
2022-11-19T01:36:39.120Z,100930.66
2022-11-19T01:41:35.146Z,100937.50
2022-11-19T01:46:32.720Z,100933.09
2022-11-19T01:51:32.079Z,100932.88
2022-11-19T01:56:29.704Z,100944.59
2022-11-19T02:01:29.277Z,100934.81
2022-11-19T02:06:22.132Z,100939.63
2022-11-19T02:11:34.541Z,100947.91
2022-11-19T02:16:36.462Z,100950.94
2022-11-19T02:21:44.734Z,100959.31
2022-11-19T02:27:04.876Z,100965.09
2022-11-19T02:32:19.335Z,100973.38
2022-11-19T02:37:17.017Z,100974.25
2022-11-19T02:42:21.153Z,100976.78
2022-11-19T02:47:23.688Z,100994.41
2022-11-19T02:52:16.213Z,100987.34
2022-11-19T02:57:08.351Z,100988.94
2022-11-19T03:02:11.762Z,101005.81
2022-11-19T03:07:10.803Z,100995.19
2022-11-19T03:12:15.925Z,100996.13
2022-11-19T03:17:15.276Z,101003.00
2022-11-19T03:22:17.428Z,101008.09
2022-11-19T03:27:20.733Z,101018.25
2022-11-19T03:32:19.717Z,100998.00
2022-11-19T03:37:38.535Z,101005.94
2022-11-19T03:42:42.617Z,101018.72
2022-11-19T03:47:41.127Z,101022.91
2022-11-19T03:52:42.545Z,101015.84
2022-11-19T03:57:45.315Z,101017.66
2022-11-19T04:02:38.772Z,101019.41
2022-11-19T04:07:31.314Z,101028.09
2022-11-19T04:12:34.980Z,101045.09
2022-11-19T04:17:25.786Z,101055.19
2022-11-19T04:22:21.430Z,101063.50
2022-11-19T04:27:21.680Z,101063.09
2022-11-19T04:32:17.053Z,101069.84
2022-11-19T04:37:08.616Z,101073.91
2022-11-19T04:41:59.820Z,101080.63
2022-11-19T04:46:50.631Z,101084.00
2022-11-19T04:51:44.187Z,101087.34
2022-11-19T04:56:42.145Z,101076.78
2022-11-19T05:01:34.673Z,101091.31
2022-11-19T05:06:27.567Z,101084.28
2022-11-19T05:11:24.951Z,101102.41
2022-11-19T05:16:19.233Z,101108.97
2022-11-19T05:21:10.977Z,101105.31
2022-11-19T05:26:05.198Z,101104.44
2022-11-19T05:31:04.700Z,101121.25
2022-11-19T05:36:00.531Z,101125.50
2022-11-19T05:40:51.443Z,101134.97
2022-11-19T05:45:42.670Z,101139.22
2022-11-19T05:50:36.715Z,101136.59
2022-11-19T05:55:31.065Z,101141.50
2022-11-19T06:00:22.877Z,101147.94
2022-11-19T06:05:17.931Z,101158.06
2022-11-19T06:10:17.958Z,101162.59
2022-11-19T06:15:10.104Z,101163.06
2022-11-19T06:20:05.004Z,101160.28
2022-11-19T06:25:00.377Z,101171.47
2022-11-19T06:29:56.987Z,101178.91
2022-11-19T06:34:49.527Z,101171.88
2022-11-19T06:39:43.839Z,101176.00
2022-11-19T06:44:36.365Z,101195.69
2022-11-19T06:49:38.533Z,101205.94
2022-11-19T06:54:29.657Z,101209.75
2022-11-19T06:59:23.160Z,101214.69
2022-11-19T07:04:14.724Z,101216.44
2022-11-19T07:09:11.540Z,101226.41
2022-11-19T07:14:06.242Z,101221.97
2022-11-19T07:19:02.356Z,101236.41
2022-11-19T07:23:53.161Z,101233.38
2022-11-19T07:28:48.817Z,101248.13
2022-11-19T07:33:41.521Z,101260.69
2022-11-19T07:38:37.168Z,101260.31
2022-11-19T07:43:30.150Z,101270.53
2022-11-19T07:48:30.795Z,101255.06
2022-11-19T07:53:24.290Z,101270.63
2022-11-19T07:58:22.489Z,101288.41
2022-11-19T08:03:15.779Z,101278.13
2022-11-19T08:08:13.529Z,101291.06
2022-11-19T08:13:12.282Z,101303.31
2022-11-19T08:18:17.431Z,101299.25
2022-11-19T08:23:29.301Z,101313.91
2022-11-19T08:28:21.049Z,101309.47
2022-11-19T08:33:27.217Z,101304.91
2022-11-19T08:38:27.981Z,101310.00
2022-11-19T08:43:23.548Z,101319.41
2022-11-19T08:48:17.633Z,101325.28
2022-11-19T08:53:10.354Z,101336.34
2022-11-19T08:58:12.766Z,101325.34
2022-11-19T09:03:04.657Z,101300.84
2022-11-19T09:08:01.692Z,101336.91
2022-11-19T09:12:55.794Z,101341.25
2022-11-19T09:17:56.634Z,101353.16
2022-11-19T09:22:51.087Z,101363.50
2022-11-19T09:27:43.384Z,101372.91
2022-11-19T09:32:43.266Z,101360.00
2022-11-19T09:37:46.167Z,101376.59
2022-11-19T09:42:54.360Z,101364.38
2022-11-19T09:48:02.254Z,101376.34
2022-11-19T09:53:07.026Z,101385.03
2022-11-19T09:58:05.218Z,101390.03
2022-11-19T10:03:07.267Z,101393.72
2022-11-19T10:08:23.339Z,101397.38
2022-11-19T10:13:32.596Z,101404.31
2022-11-19T10:18:37.276Z,101407.28
2022-11-19T10:23:45.914Z,101404.03
2022-11-19T10:28:43.375Z,101416.06
2022-11-19T10:33:45.591Z,101389.09
2022-11-19T10:38:55.125Z,101419.16
2022-11-19T10:43:56.337Z,101423.25
2022-11-19T10:48:54.241Z,101410.38
2022-11-19T10:53:49.859Z,101404.97
2022-11-19T10:58:42.782Z,101402.34
2022-11-19T11:03:38.216Z,101390.47
2022-11-19T11:08:59.285Z,101383.47
2022-11-19T11:14:15.988Z,101378.41
2022-11-19T11:19:15.157Z,101380.19
2022-11-19T11:24:07.271Z,101390.28
2022-11-19T11:29:09.603Z,101394.84
2022-11-19T11:34:05.478Z,101389.22
2022-11-19T11:38:57.915Z,101396.50
2022-11-19T11:44:01.877Z,101403.34
2022-11-19T11:54:16.618Z,101396.56
2022-11-19T11:59:33.690Z,101395.78
2022-11-19T12:04:33.691Z,101400.34
2022-11-19T12:09:46.171Z,101402.44
2022-11-19T12:20:05.132Z,101389.44
2022-11-19T12:25:22.551Z,101390.91
2022-11-19T12:30:24.257Z,101384.06
2022-11-19T12:35:38.602Z,101391.50
2022-11-19T12:40:41.707Z,101401.19
2022-11-19T12:45:37.242Z,101390.03
2022-11-19T12:50:40.312Z,101388.94
2022-11-19T12:55:37.485Z,101383.47
2022-11-19T13:00:30.315Z,101398.31
2022-11-19T13:05:24.255Z,101396.91
2022-11-19T13:10:21.993Z,101400.97
2022-11-19T13:15:19.557Z,101400.97
2022-11-19T13:20:15.808Z,101410.50
2022-11-19T13:25:14.195Z,101403.78
2022-11-19T13:30:11.391Z,101410.69
2022-11-19T13:35:15.435Z,101408.69
2022-11-19T13:40:14.963Z,101408.97
2022-11-19T13:45:13.114Z,101409.97
2022-11-19T13:50:07.892Z,101398.22
2022-11-19T13:55:02.070Z,101395.19
2022-11-19T13:59:57.340Z,101389.22
2022-11-19T14:05:18.462Z,101394.25
2022-11-19T14:10:18.430Z,101402.94
2022-11-19T14:15:40.868Z,101410.66
2022-11-19T14:20:52.838Z,101414.16
2022-11-19T14:26:03.324Z,101406.50
2022-11-19T14:31:11.466Z,101412.56
2022-11-19T14:36:02.629Z,101415.19
2022-11-19T14:41:04.774Z,101418.44
2022-11-19T14:46:09.846Z,101414.16
2022-11-19T14:51:01.179Z,101410.66
2022-11-19T14:55:56.740Z,101417.66
2022-11-19T15:01:18.008Z,101423.50
2022-11-19T15:06:24.813Z,101412.34
2022-11-19T15:11:25.235Z,101419.84
2022-11-19T15:16:25.668Z,101417.31
2022-11-19T15:21:25.974Z,101429.19
2022-11-19T15:26:21.767Z,101430.94
2022-11-19T15:31:19.535Z,101429.34
2022-11-19T15:36:25.985Z,101432.03
2022-11-19T15:41:24.364Z,101435.38
2022-11-19T15:46:18.154Z,101437.13
2022-11-19T15:51:10.527Z,101443.31
2022-11-19T15:56:02.173Z,101443.38
2022-11-19T16:00:58.350Z,101431.44
2022-11-19T16:06:05.813Z,101435.94
2022-11-19T16:11:22.516Z,101448.03
2022-11-19T16:16:46.401Z,101441.97
2022-11-19T16:21:43.793Z,101444.63
2022-11-19T16:26:42.706Z,101439.50
2022-11-19T16:31:38.582Z,101442.88
2022-11-19T16:36:33.301Z,101454.03
2022-11-19T16:41:36.314Z,101454.91
2022-11-19T16:46:35.141Z,101453.09
2022-11-19T16:51:37.282Z,101461.63
2022-11-19T16:56:30.643Z,101460.06
2022-11-19T17:01:23.460Z,101455.81
2022-11-19T17:06:26.927Z,101460.94
2022-11-19T17:11:37.855Z,101452.94
2022-11-19T17:16:31.123Z,101456.25
2022-11-19T17:21:27.927Z,101469.13
2022-11-19T17:26:25.917Z,101465.63
2022-11-19T17:31:28.665Z,101460.66
2022-11-19T17:36:26.928Z,101463.81
2022-11-19T17:41:39.591Z,101467.22
2022-11-19T17:46:35.784Z,101469.72
2022-11-19T17:51:34.506Z,101471.06
2022-11-19T17:56:27.545Z,101462.53
2022-11-19T18:01:18.537Z,101469.91
2022-11-19T18:06:14.498Z,101467.19
2022-11-19T18:11:05.282Z,101472.00
2022-11-19T18:15:55.845Z,101467.50
2022-11-19T18:20:47.168Z,101461.47
2022-11-19T18:25:41.277Z,101474.97
2022-11-19T18:30:32.471Z,101472.13
2022-11-19T18:35:26.329Z,101469.41
2022-11-19T18:40:19.834Z,101466.84
2022-11-19T18:45:13.368Z,101456.53
2022-11-19T18:50:04.309Z,101455.19
2022-11-19T18:54:56.697Z,101469.75
2022-11-19T18:59:47.698Z,101467.50
2022-11-19T19:04:41.248Z,101467.69
2022-11-19T19:09:35.657Z,101470.03
2022-11-19T19:14:27.339Z,101469.00
2022-11-19T19:19:20.511Z,101465.50
2022-11-19T19:24:15.732Z,101468.69
2022-11-19T19:29:06.546Z,101461.53
2022-11-19T19:34:06.077Z,101471.66
2022-11-19T19:38:56.771Z,101467.44
2022-11-19T19:43:51.029Z,101482.56
2022-11-19T19:48:43.720Z,101477.94
2022-11-19T19:53:35.111Z,101482.66
2022-11-19T19:58:28.076Z,101491.88
2022-11-19T20:03:22.783Z,101489.66
2022-11-19T20:08:13.989Z,101488.78
2022-11-19T20:13:19.433Z,101473.81
2022-11-19T20:18:13.232Z,101488.69
2022-11-19T20:23:11.602Z,101483.19
2022-11-19T20:28:08.109Z,101501.47
2022-11-19T20:32:58.619Z,101513.06
2022-11-19T20:37:57.512Z,101509.41
2022-11-19T20:43:17.315Z,101510.09
2022-11-19T20:48:10.228Z,101511.69
2022-11-19T20:53:03.792Z,101511.06
2022-11-19T20:58:00.644Z,101514.63
2022-11-19T21:02:52.180Z,101506.38
2022-11-19T21:07:43.378Z,101509.34
2022-11-19T21:12:34.030Z,101503.56
2022-11-19T21:17:29.483Z,101502.91
2022-11-19T21:22:19.978Z,101493.53
2022-11-19T21:27:11.843Z,101489.09
2022-11-19T21:32:08.132Z,101492.06
2022-11-19T21:37:02.917Z,101493.94
2022-11-19T21:41:53.589Z,101486.44
2022-11-19T21:46:44.723Z,101499.69
2022-11-19T21:51:35.079Z,101492.44
2022-11-19T21:56:36.890Z,101489.38
2022-11-19T22:01:29.090Z,101496.66
2022-11-19T22:06:21.483Z,101496.16
2022-11-19T22:11:25.205Z,101492.47
2022-11-19T22:16:18.617Z,101510.63
2022-11-19T22:21:10.020Z,101503.34
2022-11-19T22:26:01.867Z,101508.16
2022-11-19T22:30:56.420Z,101512.09
2022-11-19T22:35:49.631Z,101505.19
2022-11-19T22:40:43.965Z,101506.75
2022-11-19T22:45:35.001Z,101509.97
2022-11-19T22:50:29.236Z,101499.31
2022-11-19T22:55:22.553Z,101498.88
2022-11-19T23:00:14.432Z,101491.84
2022-11-19T23:05:07.132Z,101483.16
2022-11-19T23:09:57.397Z,101476.41
2022-11-19T23:14:51.672Z,101463.72
2022-11-19T23:19:42.708Z,101464.69
2022-11-19T23:24:34.573Z,101468.28
2022-11-19T23:29:27.561Z,101466.59
2022-11-19T23:34:22.287Z,101454.34
2022-11-19T23:39:17.968Z,101451.16
2022-11-19T23:44:09.043Z,101425.19
2022-11-19T23:49:00.828Z,101433.66
2022-11-19T23:53:57.930Z,101442.69
2022-11-19T23:58:51.460Z,101443.19
